sensor_id;sensor_type;location;lat;lon;timestamp;P1;durP1;ratioP1;P2;durP2;ratioP2
5967;SDS011;3010;51.028;4.170;2022-12-18T00:01:30;65.75;;;35.58;;
5967;SDS011;3010;51.028;4.170;2022-12-18T00:03:55;59.83;;;30.07;;
5967;SDS011;3010;51.028;4.170;2022-12-18T00:06:23;54.77;;;26.83;;
5967;SDS011;3010;51.028;4.170;2022-12-18T00:08:49;53.13;;;26.83;;
5967;SDS011;3010;51.028;4.170;2022-12-18T00:11:16;66.43;;;34.00;;
5967;SDS011;3010;51.028;4.170;2022-12-18T00:13:42;54.50;;;29.77;;
5967;SDS011;3010;51.028;4.170;2022-12-18T00:16:11;58.57;;;27.57;;
5967;SDS011;3010;51.028;4.170;2022-12-18T00:18:35;54.07;;;26.43;;
5967;SDS011;3010;51.028;4.170;2022-12-18T00:21:03;54.90;;;27.67;;
5967;SDS011;3010;51.028;4.170;2022-12-18T00:23:28;67.75;;;35.72;;
5967;SDS011;3010;51.028;4.170;2022-12-18T00:25:58;59.67;;;28.63;;
5967;SDS011;3010;51.028;4.170;2022-12-18T00:28:21;54.17;;;28.53;;
5967;SDS011;3010;51.028;4.170;2022-12-18T00:30:48;66.03;;;29.40;;
5967;SDS011;3010;51.028;4.170;2022-12-18T00:33:14;50.67;;;26.43;;
5967;SDS011;3010;51.028;4.170;2022-12-18T00:35:41;69.78;;;37.63;;
5967;SDS011;3010;51.028;4.170;2022-12-18T00:38:08;70.73;;;31.87;;
5967;SDS011;3010;51.028;4.170;2022-12-18T00:40:34;74.00;;;37.75;;
5967;SDS011;3010;51.028;4.170;2022-12-18T00:43:01;70.23;;;32.90;;
5967;SDS011;3010;51.028;4.170;2022-12-18T00:45:28;66.53;;;31.37;;
5967;SDS011;3010;51.028;4.170;2022-12-18T00:47:54;64.17;;;29.93;;
5967;SDS011;3010;51.028;4.170;2022-12-18T00:50:21;77.35;;;38.70;;
5967;SDS011;3010;51.028;4.170;2022-12-18T00:52:47;64.50;;;32.43;;
5967;SDS011;3010;51.028;4.170;2022-12-18T00:55:14;62.10;;;31.50;;
5967;SDS011;3010;51.028;4.170;2022-12-18T00:57:40;70.87;;;37.72;;
5967;SDS011;3010;51.028;4.170;2022-12-18T01:00:08;70.13;;;32.57;;
5967;SDS011;3010;51.028;4.170;2022-12-18T01:02:34;63.03;;;30.80;;
5967;SDS011;3010;51.028;4.170;2022-12-18T01:05:00;56.37;;;28.07;;
5967;SDS011;3010;51.028;4.170;2022-12-18T01:07:27;55.27;;;28.20;;
5967;SDS011;3010;51.028;4.170;2022-12-18T01:09:53;60.03;;;28.97;;
5967;SDS011;3010;51.028;4.170;2022-12-18T01:12:20;73.10;;;37.90;;
5967;SDS011;3010;51.028;4.170;2022-12-18T01:14:47;63.70;;;30.27;;
5967;SDS011;3010;51.028;4.170;2022-12-18T01:17:13;59.33;;;30.40;;
5967;SDS011;3010;51.028;4.170;2022-12-18T01:19:40;57.90;;;30.23;;
5967;SDS011;3010;51.028;4.170;2022-12-18T01:22:06;69.97;;;37.60;;
5967;SDS011;3010;51.028;4.170;2022-12-18T01:24:33;60.97;;;31.37;;
5967;SDS011;3010;51.028;4.170;2022-12-18T01:27:00;68.67;;;29.17;;
5967;SDS011;3010;51.028;4.170;2022-12-18T01:29:26;62.20;;;30.10;;
5967;SDS011;3010;51.028;4.170;2022-12-18T01:31:54;57.17;;;28.63;;
5967;SDS011;3010;51.028;4.170;2022-12-18T01:34:19;58.63;;;28.53;;
5967;SDS011;3010;51.028;4.170;2022-12-18T01:36:46;56.47;;;28.57;;
5967;SDS011;3010;51.028;4.170;2022-12-18T01:39:13;58.00;;;28.10;;
5967;SDS011;3010;51.028;4.170;2022-12-18T01:41:39;60.50;;;29.10;;
5967;SDS011;3010;51.028;4.170;2022-12-18T01:50:03;56.83;;;28.50;;
5967;SDS011;3010;51.028;4.170;2022-12-18T01:52:30;57.33;;;28.00;;
5967;SDS011;3010;51.028;4.170;2022-12-18T01:54:57;57.07;;;27.90;;
5967;SDS011;3010;51.028;4.170;2022-12-18T01:57:23;56.30;;;27.63;;
5967;SDS011;3010;51.028;4.170;2022-12-18T01:59:50;52.13;;;27.60;;
5967;SDS011;3010;51.028;4.170;2022-12-18T02:02:16;59.60;;;29.13;;
5967;SDS011;3010;51.028;4.170;2022-12-18T02:04:43;61.40;;;27.77;;
5967;SDS011;3010;51.028;4.170;2022-12-18T02:10:23;63.37;;;27.60;;
5967;SDS011;3010;51.028;4.170;2022-12-18T02:13:02;61.87;;;29.20;;
5967;SDS011;3010;51.028;4.170;2022-12-18T02:18:28;59.93;;;28.37;;
5967;SDS011;3010;51.028;4.170;2022-12-18T02:20:55;60.57;;;27.83;;
5967;SDS011;3010;51.028;4.170;2022-12-18T02:26:32;54.30;;;28.67;;
5967;SDS011;3010;51.028;4.170;2022-12-18T02:29:04;64.33;;;29.07;;
5967;SDS011;3010;51.028;4.170;2022-12-18T02:31:18;52.20;;;26.93;;
5967;SDS011;3010;51.028;4.170;2022-12-18T02:33:43;58.00;;;29.00;;
5967;SDS011;3010;51.028;4.170;2022-12-18T02:36:09;68.50;;;36.15;;
5967;SDS011;3010;51.028;4.170;2022-12-18T02:38:35;59.43;;;31.03;;
5967;SDS011;3010;51.028;4.170;2022-12-18T02:41:02;56.47;;;28.63;;
5967;SDS011;3010;51.028;4.170;2022-12-18T02:43:29;60.77;;;29.53;;
5967;SDS011;3010;51.028;4.170;2022-12-18T02:45:58;63.33;;;28.63;;
5967;SDS011;3010;51.028;4.170;2022-12-18T02:48:29;60.30;;;29.03;;
5967;SDS011;3010;51.028;4.170;2022-12-18T02:50:58;65.73;;;30.57;;
5967;SDS011;3010;51.028;4.170;2022-12-18T02:56:32;63.07;;;28.33;;
5967;SDS011;3010;51.028;4.170;2022-12-18T02:59:04;59.17;;;26.80;;
5967;SDS011;3010;51.028;4.170;2022-12-18T03:01:37;56.73;;;28.30;;
5967;SDS011;3010;51.028;4.170;2022-12-18T03:06:47;58.20;;;29.80;;
5967;SDS011;3010;51.028;4.170;2022-12-18T03:09:14;56.07;;;28.97;;
5967;SDS011;3010;51.028;4.170;2022-12-18T03:11:42;61.73;;;29.63;;
5967;SDS011;3010;51.028;4.170;2022-12-18T03:14:27;54.20;;;26.83;;
5967;SDS011;3010;51.028;4.170;2022-12-18T03:16:54;56.43;;;29.30;;
5967;SDS011;3010;51.028;4.170;2022-12-18T03:19:21;59.90;;;29.13;;
5967;SDS011;3010;51.028;4.170;2022-12-18T03:21:47;58.37;;;28.80;;
5967;SDS011;3010;51.028;4.170;2022-12-18T03:24:13;64.43;;;35.83;;
5967;SDS011;3010;51.028;4.170;2022-12-18T03:26:41;61.03;;;30.13;;
5967;SDS011;3010;51.028;4.170;2022-12-18T03:29:07;58.77;;;29.70;;
5967;SDS011;3010;51.028;4.170;2022-12-18T03:31:33;59.40;;;27.73;;
5967;SDS011;3010;51.028;4.170;2022-12-18T03:34:01;60.85;;;33.53;;
5967;SDS011;3010;51.028;4.170;2022-12-18T03:36:26;59.67;;;28.23;;
5967;SDS011;3010;51.028;4.170;2022-12-18T03:38:53;58.03;;;28.70;;
5967;SDS011;3010;51.028;4.170;2022-12-18T03:41:23;60.63;;;28.23;;
5967;SDS011;3010;51.028;4.170;2022-12-18T03:46:23;55.90;;;27.80;;
5967;SDS011;3010;51.028;4.170;2022-12-18T03:48:48;55.53;;;27.60;;
5967;SDS011;3010;51.028;4.170;2022-12-18T03:51:31;58.35;;;32.25;;
5967;SDS011;3010;51.028;4.170;2022-12-18T03:54:04;60.10;;;34.30;;
5967;SDS011;3010;51.028;4.170;2022-12-18T03:56:31;53.43;;;27.97;;
5967;SDS011;3010;51.028;4.170;2022-12-18T03:58:57;49.80;;;25.40;;
5967;SDS011;3010;51.028;4.170;2022-12-18T04:01:25;51.57;;;26.50;;
5967;SDS011;3010;51.028;4.170;2022-12-18T04:03:50;48.37;;;25.27;;
5967;SDS011;3010;51.028;4.170;2022-12-18T04:06:16;51.03;;;25.60;;
5967;SDS011;3010;51.028;4.170;2022-12-18T04:08:43;51.30;;;24.43;;
5967;SDS011;3010;51.028;4.170;2022-12-18T04:11:09;57.95;;;31.15;;
5967;SDS011;3010;51.028;4.170;2022-12-18T04:13:36;45.20;;;25.23;;
5967;SDS011;3010;51.028;4.170;2022-12-18T04:16:03;47.07;;;25.70;;
5967;SDS011;3010;51.028;4.170;2022-12-18T04:18:30;53.67;;;25.63;;
5967;SDS011;3010;51.028;4.170;2022-12-18T04:20:56;51.40;;;25.80;;
5967;SDS011;3010;51.028;4.170;2022-12-18T04:23:22;48.83;;;24.43;;
5967;SDS011;3010;51.028;4.170;2022-12-18T04:25:49;46.70;;;24.53;;
5967;SDS011;3010;51.028;4.170;2022-12-18T04:28:16;51.93;;;24.77;;
5967;SDS011;3010;51.028;4.170;2022-12-18T04:30:42;53.50;;;25.97;;
5967;SDS011;3010;51.028;4.170;2022-12-18T04:33:12;49.97;;;25.10;;
5967;SDS011;3010;51.028;4.170;2022-12-18T04:35:35;52.73;;;25.50;;
5967;SDS011;3010;51.028;4.170;2022-12-18T04:38:02;46.47;;;24.87;;
5967;SDS011;3010;51.028;4.170;2022-12-18T04:40:29;44.67;;;24.17;;
5967;SDS011;3010;51.028;4.170;2022-12-18T04:42:55;44.23;;;23.50;;
5967;SDS011;3010;51.028;4.170;2022-12-18T04:45:22;53.03;;;25.27;;
5967;SDS011;3010;51.028;4.170;2022-12-18T04:47:48;51.50;;;24.50;;
5967;SDS011;3010;51.028;4.170;2022-12-18T04:50:15;45.50;;;23.17;;
5967;SDS011;3010;51.028;4.170;2022-12-18T04:52:41;45.10;;;24.60;;
5967;SDS011;3010;51.028;4.170;2022-12-18T04:55:08;44.70;;;23.13;;
5967;SDS011;3010;51.028;4.170;2022-12-18T04:57:35;45.27;;;23.30;;
5967;SDS011;3010;51.028;4.170;2022-12-18T05:00:02;50.00;;;25.60;;
5967;SDS011;3010;51.028;4.170;2022-12-18T05:02:28;47.40;;;24.20;;
5967;SDS011;3010;51.028;4.170;2022-12-18T05:04:54;48.43;;;24.53;;
5967;SDS011;3010;51.028;4.170;2022-12-18T05:07:21;42.93;;;23.50;;
5967;SDS011;3010;51.028;4.170;2022-12-18T05:09:47;49.37;;;24.40;;
5967;SDS011;3010;51.028;4.170;2022-12-18T05:12:14;45.87;;;22.77;;
5967;SDS011;3010;51.028;4.170;2022-12-18T05:14:41;48.67;;;24.13;;
5967;SDS011;3010;51.028;4.170;2022-12-18T05:17:07;46.13;;;23.40;;
5967;SDS011;3010;51.028;4.170;2022-12-18T05:19:34;45.40;;;23.47;;
5967;SDS011;3010;51.028;4.170;2022-12-18T05:22:00;57.15;;;31.42;;
5967;SDS011;3010;51.028;4.170;2022-12-18T05:24:27;51.87;;;27.10;;
5967;SDS011;3010;51.028;4.170;2022-12-18T05:26:54;47.33;;;25.07;;
5967;SDS011;3010;51.028;4.170;2022-12-18T05:29:20;45.23;;;24.00;;
5967;SDS011;3010;51.028;4.170;2022-12-18T05:31:47;46.37;;;24.57;;
5967;SDS011;3010;51.028;4.170;2022-12-18T05:34:13;42.63;;;23.67;;
5967;SDS011;3010;51.028;4.170;2022-12-18T05:36:40;48.60;;;24.00;;
5967;SDS011;3010;51.028;4.170;2022-12-18T05:39:07;48.10;;;25.37;;
5967;SDS011;3010;51.028;4.170;2022-12-18T05:41:33;47.27;;;23.50;;
5967;SDS011;3010;51.028;4.170;2022-12-18T05:44:00;55.88;;;31.80;;
5967;SDS011;3010;51.028;4.170;2022-12-18T05:46:26;54.67;;;26.70;;
5967;SDS011;3010;51.028;4.170;2022-12-18T05:48:53;52.60;;;30.25;;
5967;SDS011;3010;51.028;4.170;2022-12-18T05:51:20;49.43;;;26.30;;
5967;SDS011;3010;51.028;4.170;2022-12-18T05:53:46;47.00;;;25.23;;
5967;SDS011;3010;51.028;4.170;2022-12-18T05:56:13;47.97;;;24.53;;
5967;SDS011;3010;51.028;4.170;2022-12-18T05:58:39;44.90;;;24.77;;
5967;SDS011;3010;51.028;4.170;2022-12-18T06:01:13;46.87;;;22.97;;
5967;SDS011;3010;51.028;4.170;2022-12-18T06:03:38;47.83;;;23.70;;
5967;SDS011;3010;51.028;4.170;2022-12-18T06:06:12;40.63;;;22.17;;
5967;SDS011;3010;51.028;4.170;2022-12-18T06:08:31;47.30;;;24.30;;
5967;SDS011;3010;51.028;4.170;2022-12-18T06:10:58;43.40;;;22.70;;
5967;SDS011;3010;51.028;4.170;2022-12-18T06:13:25;50.30;;;24.40;;
5967;SDS011;3010;51.028;4.170;2022-12-18T06:15:51;49.72;;;29.52;;
5967;SDS011;3010;51.028;4.170;2022-12-18T06:18:18;45.53;;;24.37;;
5967;SDS011;3010;51.028;4.170;2022-12-18T06:20:44;50.38;;;29.15;;
5967;SDS011;3010;51.028;4.170;2022-12-18T06:23:11;47.00;;;25.23;;
5967;SDS011;3010;51.028;4.170;2022-12-18T06:25:38;44.40;;;24.50;;
5967;SDS011;3010;51.028;4.170;2022-12-18T06:28:04;41.00;;;23.00;;
5967;SDS011;3010;51.028;4.170;2022-12-18T06:30:31;39.63;;;22.20;;
5967;SDS011;3010;51.028;4.170;2022-12-18T06:32:57;42.90;;;21.83;;
5967;SDS011;3010;51.028;4.170;2022-12-18T06:35:24;37.57;;;21.53;;
5967;SDS011;3010;51.028;4.170;2022-12-18T06:37:50;44.67;;;21.17;;
5967;SDS011;3010;51.028;4.170;2022-12-18T06:40:17;45.42;;;27.42;;
5967;SDS011;3010;51.028;4.170;2022-12-18T06:42:44;40.03;;;22.77;;
5967;SDS011;3010;51.028;4.170;2022-12-18T06:45:10;38.67;;;22.17;;
5967;SDS011;3010;51.028;4.170;2022-12-18T06:47:37;46.53;;;27.25;;
5967;SDS011;3010;51.028;4.170;2022-12-18T06:50:03;40.60;;;23.30;;
5967;SDS011;3010;51.028;4.170;2022-12-18T06:52:31;38.87;;;21.63;;
5967;SDS011;3010;51.028;4.170;2022-12-18T06:54:56;38.73;;;21.10;;
5967;SDS011;3010;51.028;4.170;2022-12-18T06:57:23;36.63;;;20.67;;
5967;SDS011;3010;51.028;4.170;2022-12-18T06:59:50;35.90;;;20.77;;
5967;SDS011;3010;51.028;4.170;2022-12-18T07:02:16;39.23;;;20.23;;
5967;SDS011;3010;51.028;4.170;2022-12-18T07:04:43;45.08;;;26.60;;
5967;SDS011;3010;51.028;4.170;2022-12-18T07:07:09;39.67;;;22.20;;
5967;SDS011;3010;51.028;4.170;2022-12-18T07:09:36;42.27;;;21.90;;
5967;SDS011;3010;51.028;4.170;2022-12-18T07:12:03;38.67;;;21.30;;
5967;SDS011;3010;51.028;4.170;2022-12-18T07:14:29;41.80;;;22.47;;
5967;SDS011;3010;51.028;4.170;2022-12-18T07:16:56;43.38;;;25.95;;
5967;SDS011;3010;51.028;4.170;2022-12-18T07:19:22;43.20;;;22.80;;
5967;SDS011;3010;51.028;4.170;2022-12-18T07:21:49;43.72;;;27.35;;
5967;SDS011;3010;51.028;4.170;2022-12-18T07:24:16;41.13;;;23.50;;
5967;SDS011;3010;51.028;4.170;2022-12-18T07:26:42;46.27;;;23.33;;
5967;SDS011;3010;51.028;4.170;2022-12-18T07:29:09;43.30;;;22.77;;
5967;SDS011;3010;51.028;4.170;2022-12-18T07:31:36;37.70;;;20.63;;
5967;SDS011;3010;51.028;4.170;2022-12-18T07:34:02;38.87;;;21.20;;
5967;SDS011;3010;51.028;4.170;2022-12-18T07:36:29;44.47;;;26.37;;
5967;SDS011;3010;51.028;4.170;2022-12-18T07:38:55;41.90;;;22.33;;
5967;SDS011;3010;51.028;4.170;2022-12-18T07:41:22;41.27;;;21.33;;
5967;SDS011;3010;51.028;4.170;2022-12-18T07:43:49;35.30;;;19.87;;
5967;SDS011;3010;51.028;4.170;2022-12-18T07:46:15;33.43;;;19.10;;
5967;SDS011;3010;51.028;4.170;2022-12-18T07:48:42;35.43;;;20.63;;
5967;SDS011;3010;51.028;4.170;2022-12-18T07:51:08;35.53;;;19.20;;
5967;SDS011;3010;51.028;4.170;2022-12-18T07:53:35;30.37;;;18.03;;
5967;SDS011;3010;51.028;4.170;2022-12-18T07:56:03;31.63;;;19.00;;
5967;SDS011;3010;51.028;4.170;2022-12-18T07:58:28;33.67;;;18.70;;
5967;SDS011;3010;51.028;4.170;2022-12-18T08:01:01;32.80;;;16.97;;
5967;SDS011;3010;51.028;4.170;2022-12-18T08:03:21;32.47;;;18.73;;
5967;SDS011;3010;51.028;4.170;2022-12-18T08:05:48;28.77;;;16.60;;
5967;SDS011;3010;51.028;4.170;2022-12-18T08:08:14;33.90;;;18.10;;
5967;SDS011;3010;51.028;4.170;2022-12-18T08:10:41;37.70;;;23.00;;
5967;SDS011;3010;51.028;4.170;2022-12-18T08:13:07;34.30;;;20.03;;
5967;SDS011;3010;51.028;4.170;2022-12-18T08:15:34;31.27;;;18.23;;
5967;SDS011;3010;51.028;4.170;2022-12-18T08:18:01;32.77;;;18.17;;
5967;SDS011;3010;51.028;4.170;2022-12-18T08:20:27;36.70;;;22.45;;
5967;SDS011;3010;51.028;4.170;2022-12-18T08:22:54;30.47;;;18.17;;
5967;SDS011;3010;51.028;4.170;2022-12-18T08:25:20;31.07;;;18.13;;
5967;SDS011;3010;51.028;4.170;2022-12-18T08:27:47;32.87;;;18.50;;
5967;SDS011;3010;51.028;4.170;2022-12-18T08:30:14;27.73;;;16.80;;
5967;SDS011;3010;51.028;4.170;2022-12-18T08:32:40;32.83;;;18.53;;
5967;SDS011;3010;51.028;4.170;2022-12-18T08:35:07;36.72;;;22.92;;
5967;SDS011;3010;51.028;4.170;2022-12-18T08:37:33;39.90;;;20.23;;
5967;SDS011;3010;51.028;4.170;2022-12-18T08:40:00;35.93;;;20.67;;
5967;SDS011;3010;51.028;4.170;2022-12-18T08:42:27;32.73;;;18.00;;
5967;SDS011;3010;51.028;4.170;2022-12-18T08:45:11;30.50;;;17.90;;
5967;SDS011;3010;51.028;4.170;2022-12-18T08:47:38;35.23;;;18.67;;
5967;SDS011;3010;51.028;4.170;2022-12-18T08:50:05;31.67;;;18.37;;
5967;SDS011;3010;51.028;4.170;2022-12-18T08:52:31;33.78;;;21.83;;
5967;SDS011;3010;51.028;4.170;2022-12-18T08:54:58;40.43;;;20.73;;
5967;SDS011;3010;51.028;4.170;2022-12-18T08:57:24;33.83;;;18.13;;
5967;SDS011;3010;51.028;4.170;2022-12-18T08:59:51;35.80;;;22.67;;
5967;SDS011;3010;51.028;4.170;2022-12-18T09:02:18;36.90;;;20.77;;
5967;SDS011;3010;51.028;4.170;2022-12-18T09:04:46;33.23;;;19.30;;
5967;SDS011;3010;51.028;4.170;2022-12-18T09:07:11;41.53;;;19.83;;
5967;SDS011;3010;51.028;4.170;2022-12-18T09:09:37;33.10;;;19.30;;
5967;SDS011;3010;51.028;4.170;2022-12-18T09:12:04;34.77;;;19.53;;
5967;SDS011;3010;51.028;4.170;2022-12-18T09:14:30;31.90;;;18.53;;
5967;SDS011;3010;51.028;4.170;2022-12-18T09:16:57;28.27;;;18.90;;
5967;SDS011;3010;51.028;4.170;2022-12-18T09:19:24;34.03;;;17.33;;
5967;SDS011;3010;51.028;4.170;2022-12-18T09:21:50;29.63;;;17.03;;
5967;SDS011;3010;51.028;4.170;2022-12-18T09:24:17;34.05;;;21.25;;
5967;SDS011;3010;51.028;4.170;2022-12-18T09:26:44;29.87;;;18.23;;
5967;SDS011;3010;51.028;4.170;2022-12-18T09:29:10;36.47;;;21.42;;
5967;SDS011;3010;51.028;4.170;2022-12-18T09:31:37;31.87;;;17.77;;
5967;SDS011;3010;51.028;4.170;2022-12-18T09:34:03;27.27;;;16.90;;
5967;SDS011;3010;51.028;4.170;2022-12-18T09:36:31;27.73;;;16.83;;
5967;SDS011;3010;51.028;4.170;2022-12-18T09:38:58;31.33;;;16.90;;
5967;SDS011;3010;51.028;4.170;2022-12-18T09:44:32;31.40;;;17.37;;
5967;SDS011;3010;51.028;4.170;2022-12-18T09:47:04;25.40;;;16.10;;
5967;SDS011;3010;51.028;4.170;2022-12-18T09:49:34;32.67;;;20.45;;
5967;SDS011;3010;51.028;4.170;2022-12-18T09:52:04;33.03;;;17.60;;
5967;SDS011;3010;51.028;4.170;2022-12-18T09:54:38;30.20;;;18.23;;
5967;SDS011;3010;51.028;4.170;2022-12-18T09:57:13;30.93;;;18.57;;
5967;SDS011;3010;51.028;4.170;2022-12-18T09:59:40;33.53;;;18.80;;
5967;SDS011;3010;51.028;4.170;2022-12-18T10:02:17;33.87;;;17.93;;
5967;SDS011;3010;51.028;4.170;2022-12-18T10:04:39;31.10;;;18.47;;
5967;SDS011;3010;51.028;4.170;2022-12-18T10:07:24;35.70;;;22.67;;
5967;SDS011;3010;51.028;4.170;2022-12-18T10:09:51;30.53;;;19.53;;
5967;SDS011;3010;51.028;4.170;2022-12-18T10:12:32;32.97;;;19.47;;
5967;SDS011;3010;51.028;4.170;2022-12-18T10:18:05;35.17;;;18.17;;
5967;SDS011;3010;51.028;4.170;2022-12-18T10:23:00;30.37;;;18.23;;
5967;SDS011;3010;51.028;4.170;2022-12-18T10:28:03;28.67;;;17.03;;
5967;SDS011;3010;51.028;4.170;2022-12-18T10:30:26;32.97;;;18.93;;
5967;SDS011;3010;51.028;4.170;2022-12-18T10:32:52;30.30;;;18.43;;
5967;SDS011;3010;51.028;4.170;2022-12-18T10:35:20;29.40;;;18.07;;
5967;SDS011;3010;51.028;4.170;2022-12-18T10:40:27;27.10;;;17.63;;
5967;SDS011;3010;51.028;4.170;2022-12-18T10:43:03;26.73;;;17.93;;
5967;SDS011;3010;51.028;4.170;2022-12-18T10:45:29;27.30;;;16.23;;
5967;SDS011;3010;51.028;4.170;2022-12-18T10:47:55;28.90;;;17.73;;
5967;SDS011;3010;51.028;4.170;2022-12-18T10:50:29;26.23;;;17.13;;
5967;SDS011;3010;51.028;4.170;2022-12-18T10:53:01;27.50;;;16.70;;
5967;SDS011;3010;51.028;4.170;2022-12-18T10:55:30;27.17;;;16.67;;
5967;SDS011;3010;51.028;4.170;2022-12-18T10:57:54;21.60;;;15.50;;
5967;SDS011;3010;51.028;4.170;2022-12-18T11:00:23;26.30;;;16.53;;
5967;SDS011;3010;51.028;4.170;2022-12-18T11:02:51;24.07;;;16.10;;
5967;SDS011;3010;51.028;4.170;2022-12-18T11:05:25;24.77;;;16.50;;
5967;SDS011;3010;51.028;4.170;2022-12-18T11:07:53;29.97;;;17.33;;
5967;SDS011;3010;51.028;4.170;2022-12-18T11:10:53;29.57;;;17.37;;
5967;SDS011;3010;51.028;4.170;2022-12-18T11:13:16;27.97;;;19.73;;
5967;SDS011;3010;51.028;4.170;2022-12-18T11:15:45;27.05;;;19.98;;
5967;SDS011;3010;51.028;4.170;2022-12-18T11:18:28;23.67;;;17.03;;
5967;SDS011;3010;51.028;4.170;2022-12-18T11:21:00;24.73;;;16.20;;
5967;SDS011;3010;51.028;4.170;2022-12-18T11:23:26;28.23;;;16.57;;
5967;SDS011;3010;51.028;4.170;2022-12-18T11:25:53;23.87;;;15.43;;
5967;SDS011;3010;51.028;4.170;2022-12-18T11:28:28;24.97;;;15.60;;
5967;SDS011;3010;51.028;4.170;2022-12-18T11:33:42;26.30;;;15.53;;
5967;SDS011;3010;51.028;4.170;2022-12-18T11:36:10;26.03;;;15.90;;
5967;SDS011;3010;51.028;4.170;2022-12-18T11:38:37;25.75;;;19.17;;
5967;SDS011;3010;51.028;4.170;2022-12-18T11:46:30;25.47;;;17.30;;
5967;SDS011;3010;51.028;4.170;2022-12-18T11:48:58;25.33;;;16.50;;
5967;SDS011;3010;51.028;4.170;2022-12-18T11:51:28;26.13;;;16.90;;
5967;SDS011;3010;51.028;4.170;2022-12-18T11:53:54;26.50;;;19.00;;
5967;SDS011;3010;51.028;4.170;2022-12-18T11:56:31;24.30;;;17.73;;
5967;SDS011;3010;51.028;4.170;2022-12-18T12:01:44;26.13;;;17.70;;
5967;SDS011;3010;51.028;4.170;2022-12-18T12:09:48;32.80;;;23.42;;
5967;SDS011;3010;51.028;4.170;2022-12-18T12:15:10;26.20;;;18.67;;
5967;SDS011;3010;51.028;4.170;2022-12-18T12:20:17;32.43;;;17.77;;
5967;SDS011;3010;51.028;4.170;2022-12-18T12:22:49;27.13;;;18.10;;
5967;SDS011;3010;51.028;4.170;2022-12-18T12:25:59;28.10;;;18.10;;
5967;SDS011;3010;51.028;4.170;2022-12-18T12:27:43;29.23;;;19.40;;
5967;SDS011;3010;51.028;4.170;2022-12-18T12:37:42;29.40;;;17.53;;
5967;SDS011;3010;51.028;4.170;2022-12-18T12:40:24;27.53;;;17.43;;
5967;SDS011;3010;51.028;4.170;2022-12-18T12:43:01;30.27;;;19.03;;
5967;SDS011;3010;51.028;4.170;2022-12-18T12:45:39;33.08;;;23.52;;
5967;SDS011;3010;51.028;4.170;2022-12-18T12:48:04;33.50;;;22.33;;
5967;SDS011;3010;51.028;4.170;2022-12-18T12:50:30;34.60;;;21.20;;
5967;SDS011;3010;51.028;4.170;2022-12-18T12:52:57;31.63;;;20.77;;
5967;SDS011;3010;51.028;4.170;2022-12-18T12:55:24;33.13;;;20.13;;
5967;SDS011;3010;51.028;4.170;2022-12-18T13:00:25;32.50;;;21.80;;
5967;SDS011;3010;51.028;4.170;2022-12-18T13:02:54;38.33;;;21.13;;
5967;SDS011;3010;51.028;4.170;2022-12-18T13:05:48;30.50;;;19.47;;
5967;SDS011;3010;51.028;4.170;2022-12-18T13:08:21;33.40;;;20.80;;
5967;SDS011;3010;51.028;4.170;2022-12-18T13:10:39;37.95;;;26.73;;
5967;SDS011;3010;51.028;4.170;2022-12-18T13:13:09;39.73;;;23.87;;
5967;SDS011;3010;51.028;4.170;2022-12-18T13:15:37;35.83;;;22.77;;
5967;SDS011;3010;51.028;4.170;2022-12-18T13:18:23;34.47;;;21.57;;
5967;SDS011;3010;51.028;4.170;2022-12-18T13:20:37;37.03;;;25.00;;
5967;SDS011;3010;51.028;4.170;2022-12-18T13:25:45;33.37;;;21.67;;
5967;SDS011;3010;51.028;4.170;2022-12-18T13:28:15;28.13;;;20.37;;
5967;SDS011;3010;51.028;4.170;2022-12-18T13:30:44;31.93;;;20.07;;
5967;SDS011;3010;51.028;4.170;2022-12-18T13:40:58;32.47;;;20.80;;
5967;SDS011;3010;51.028;4.170;2022-12-18T13:43:27;32.00;;;19.87;;
5967;SDS011;3010;51.028;4.170;2022-12-18T13:48:55;31.47;;;20.67;;
5967;SDS011;3010;51.028;4.170;2022-12-18T13:51:20;32.33;;;20.77;;
5967;SDS011;3010;51.028;4.170;2022-12-18T13:53:48;37.28;;;25.85;;
5967;SDS011;3010;51.028;4.170;2022-12-18T13:56:21;32.63;;;22.53;;
5967;SDS011;3010;51.028;4.170;2022-12-18T13:58:44;32.67;;;21.00;;
5967;SDS011;3010;51.028;4.170;2022-12-18T14:01:23;31.70;;;19.47;;
5967;SDS011;3010;51.028;4.170;2022-12-18T14:03:50;34.37;;;20.33;;
5967;SDS011;3010;51.028;4.170;2022-12-18T14:06:18;37.77;;;20.90;;
5967;SDS011;3010;51.028;4.170;2022-12-18T14:08:44;33.90;;;20.57;;
5967;SDS011;3010;51.028;4.170;2022-12-18T14:11:17;33.77;;;20.87;;
5967;SDS011;3010;51.028;4.170;2022-12-18T14:13:46;33.90;;;20.03;;
5967;SDS011;3010;51.028;4.170;2022-12-18T14:16:13;31.80;;;19.77;;
5967;SDS011;3010;51.028;4.170;2022-12-18T14:18:44;37.07;;;20.23;;
5967;SDS011;3010;51.028;4.170;2022-12-18T14:21:19;34.27;;;19.57;;
5967;SDS011;3010;51.028;4.170;2022-12-18T14:23:47;36.73;;;21.07;;
5967;SDS011;3010;51.028;4.170;2022-12-18T14:26:26;38.53;;;21.53;;
5967;SDS011;3010;51.028;4.170;2022-12-18T14:28:52;34.90;;;20.20;;
5967;SDS011;3010;51.028;4.170;2022-12-18T14:31:19;34.53;;;20.67;;
5967;SDS011;3010;51.028;4.170;2022-12-18T14:33:48;41.07;;;22.30;;
5967;SDS011;3010;51.028;4.170;2022-12-18T14:36:16;36.77;;;20.87;;
5967;SDS011;3010;51.028;4.170;2022-12-18T14:38:41;42.40;;;22.07;;
5967;SDS011;3010;51.028;4.170;2022-12-18T14:41:14;39.13;;;21.37;;
5967;SDS011;3010;51.028;4.170;2022-12-18T14:43:40;40.93;;;26.07;;
5967;SDS011;3010;51.028;4.170;2022-12-18T14:46:29;36.40;;;22.93;;
5967;SDS011;3010;51.028;4.170;2022-12-18T14:48:51;37.57;;;21.57;;
5967;SDS011;3010;51.028;4.170;2022-12-18T14:51:22;38.13;;;22.03;;
5967;SDS011;3010;51.028;4.170;2022-12-18T14:53:48;38.67;;;21.60;;
5967;SDS011;3010;51.028;4.170;2022-12-18T14:56:33;39.37;;;21.83;;
5967;SDS011;3010;51.028;4.170;2022-12-18T14:58:50;40.53;;;22.17;;
5967;SDS011;3010;51.028;4.170;2022-12-18T15:01:19;40.73;;;22.53;;
5967;SDS011;3010;51.028;4.170;2022-12-18T15:03:45;38.87;;;23.13;;
5967;SDS011;3010;51.028;4.170;2022-12-18T15:06:15;39.43;;;21.87;;
5967;SDS011;3010;51.028;4.170;2022-12-18T15:08:41;38.47;;;22.43;;
5967;SDS011;3010;51.028;4.170;2022-12-18T15:13:57;42.57;;;22.83;;
5967;SDS011;3010;51.028;4.170;2022-12-18T15:16:22;43.20;;;22.30;;
5967;SDS011;3010;51.028;4.170;2022-12-18T15:18:48;43.17;;;23.80;;
5967;SDS011;3010;51.028;4.170;2022-12-18T15:21:19;41.00;;;23.43;;
5967;SDS011;3010;51.028;4.170;2022-12-18T15:26:11;42.63;;;23.60;;
5967;SDS011;3010;51.028;4.170;2022-12-18T15:28:44;38.17;;;21.23;;
5967;SDS011;3010;51.028;4.170;2022-12-18T15:33:49;41.80;;;22.93;;
5967;SDS011;3010;51.028;4.170;2022-12-18T15:36:12;40.50;;;22.80;;
5967;SDS011;3010;51.028;4.170;2022-12-18T15:38:35;39.80;;;21.67;;
5967;SDS011;3010;51.028;4.170;2022-12-18T15:41:02;42.50;;;22.70;;
5967;SDS011;3010;51.028;4.170;2022-12-18T15:43:28;40.70;;;22.87;;
5967;SDS011;3010;51.028;4.170;2022-12-18T15:46:01;47.40;;;28.98;;
5967;SDS011;3010;51.028;4.170;2022-12-18T15:48:27;40.77;;;23.60;;
5967;SDS011;3010;51.028;4.170;2022-12-18T15:50:54;40.87;;;24.00;;
5967;SDS011;3010;51.028;4.170;2022-12-18T15:53:20;39.03;;;22.33;;
5967;SDS011;3010;51.028;4.170;2022-12-18T15:55:47;40.03;;;21.60;;
5967;SDS011;3010;51.028;4.170;2022-12-18T15:58:31;38.03;;;22.10;;
5967;SDS011;3010;51.028;4.170;2022-12-18T16:00:58;35.50;;;20.60;;
5967;SDS011;3010;51.028;4.170;2022-12-18T16:03:25;45.15;;;27.85;;
5967;SDS011;3010;51.028;4.170;2022-12-18T16:05:51;43.70;;;23.33;;
5967;SDS011;3010;51.028;4.170;2022-12-18T16:08:18;41.30;;;22.77;;
5967;SDS011;3010;51.028;4.170;2022-12-18T16:10:44;40.57;;;22.67;;
5967;SDS011;3010;51.028;4.170;2022-12-18T16:13:15;43.10;;;23.03;;
5967;SDS011;3010;51.028;4.170;2022-12-18T16:15:40;43.20;;;22.40;;
5967;SDS011;3010;51.028;4.170;2022-12-18T16:18:07;40.23;;;21.80;;
5967;SDS011;3010;51.028;4.170;2022-12-18T16:20:33;40.67;;;22.30;;
5967;SDS011;3010;51.028;4.170;2022-12-18T16:23:00;39.10;;;21.83;;